Time;durP1;ratioP1;P1;durP2;ratioP2;P2;SDS_P1;SDS_P2;PMS_P1;PMS_P2;Temp;Humidity;BMP_temperature;BMP_pressure;BME280_temperature;BME280_humidity;BME280_pressure;Samples;Min_cycle;Max_cycle;Signal;HPM_P1;HPM_P2
2022/12/29 00:01:39;;;;;;;4.25;2.55;;;;;;;;;;5018720;28;20107;-65
2022/12/29 00:04:24;;;;;;;6.20;3.05;;;;;;;;;;5033532;28;20083;-67
2022/12/29 00:07:10;;;;;;;8.52;3.58;;;;;;;;;;5033526;28;20429;-68
2022/12/29 00:09:55;;;;;;;8.15;3.15;;;;;;;;;;5033258;28;20033;-66
2022/12/29 00:15:44;;;;;;;8.75;2.78;;;;;;;;;;5032890;28;20029;-76
2022/12/29 00:18:29;;;;;;;5.35;2.38;;;;;;;;;;5047083;28;20476;-77
2022/12/29 00:36:28;;;;;;;6.03;2.55;;;;;;;;;;5047305;28;20123;-75
2022/12/29 00:45:24;;;;;;;5.05;2.15;;;;;;;;;;5047104;28;20033;-76
2022/12/29 00:48:09;;;;;;;4.25;2.30;;;;;;;;;;5042281;28;20473;-75
2022/12/29 00:50:56;;;;;;;4.22;2.05;;;;;;;;;;5019620;28;20112;-71
2022/12/29 00:53:41;;;;;;;7.40;3.15;;;;;;;;;;5031692;28;20029;-70
2022/12/29 00:56:26;;;;;;;8.23;2.50;;;;;;;;;;5022194;28;20065;-71
2022/12/29 00:59:11;;;;;;;4.13;2.17;;;;;;;;;;5048325;28;20080;-70
2022/12/29 01:01:57;;;;;;;2.92;1.83;;;;;;;;;;5040239;28;20032;-70
2022/12/29 01:04:42;;;;;;;5.22;1.98;;;;;;;;;;5047365;28;20060;-69
2022/12/29 01:07:27;;;;;;;4.50;2.25;;;;;;;;;;5029479;28;20538;-70
2022/12/29 01:10:14;;;;;;;4.20;2.10;;;;;;;;;;5045939;28;20033;-74
2022/12/29 01:12:59;;;;;;;5.75;2.42;;;;;;;;;;5029441;28;20395;-76
2022/12/29 01:15:49;;;;;;;5.05;2.00;;;;;;;;;;5046663;28;20044;-76
2022/12/29 01:18:34;;;;;;;5.68;2.10;;;;;;;;;;5046975;28;20473;-75
2022/12/29 01:21:19;;;;;;;3.03;2.00;;;;;;;;;;5032712;28;20041;-74
2022/12/29 01:24:05;;;;;;;7.30;2.15;;;;;;;;;;5036456;28;20071;-76
2022/12/29 01:26:50;;;;;;;2.20;1.88;;;;;;;;;;5018888;28;20029;-78
2022/12/29 01:29:36;;;;;;;5.65;1.85;;;;;;;;;;5046850;28;20083;-76
2022/12/29 01:32:21;;;;;;;4.10;1.80;;;;;;;;;;5027400;28;20104;-77
2022/12/29 01:35:06;;;;;;;5.70;1.70;;;;;;;;;;5046194;28;20033;-76
2022/12/29 01:37:51;;;;;;;3.53;1.92;;;;;;;;;;5033877;28;20495;-77
2022/12/29 01:40:42;;;;;;;3.20;1.73;;;;;;;;;;5049938;28;20039;-77
2022/12/29 01:43:38;;;;;;;3.20;1.70;;;;;;;;;;5036066;28;20037;-77
2022/12/29 01:46:31;;;;;;;1.98;1.48;;;;;;;;;;5036565;28;20039;-74
2022/12/29 01:49:21;;;;;;;4.35;1.60;;;;;;;;;;5045364;28;20032;-76
2022/12/29 01:52:07;;;;;;;4.38;2.05;;;;;;;;;;5036349;28;20384;-75
2022/12/29 01:54:54;;;;;;;3.50;1.45;;;;;;;;;;5035680;28;20036;-76
2022/12/29 01:57:43;;;;;;;6.05;2.00;;;;;;;;;;5022415;28;20388;-76
2022/12/29 02:00:29;;;;;;;5.80;2.33;;;;;;;;;;5030922;28;20113;-75
2022/12/29 02:03:15;;;;;;;5.32;2.42;;;;;;;;;;5057048;28;20039;-70
2022/12/29 02:06:00;;;;;;;3.38;1.50;;;;;;;;;;5020548;28;20039;-69
2022/12/29 02:08:46;;;;;;;4.68;1.80;;;;;;;;;;5045057;28;20033;-70
2022/12/29 02:11:31;;;;;;;4.70;1.70;;;;;;;;;;5033805;28;20412;-68
2022/12/29 02:14:17;;;;;;;2.38;1.45;;;;;;;;;;5048788;28;20029;-69
2022/12/29 02:17:25;;;;;;;4.25;1.75;;;;;;;;;;5035248;28;20060;-69
2022/12/29 02:20:26;;;;;;;6.65;2.05;;;;;;;;;;5034930;28;20039;-70
2022/12/29 02:23:11;;;;;;;4.25;1.90;;;;;;;;;;5035615;28;20037;-74
2022/12/29 02:26:15;;;;;;;5.90;1.38;;;;;;;;;;5050691;28;20036;-89
2022/12/29 02:29:17;;;;;;;2.25;1.30;;;;;;;;;;5052999;28;20090;-91
2022/12/29 02:32:11;;;;;;;4.20;1.67;;;;;;;;;;5040729;28;20048;-90
2022/12/29 02:35:05;;;;;;;5.53;1.65;;;;;;;;;;5042807;28;20032;-90
2022/12/29 02:38:02;;;;;;;4.70;1.60;;;;;;;;;;5036442;28;20138;-90
2022/12/29 02:41:05;;;;;;;3.90;1.92;;;;;;;;;;5035065;28;20037;-75
2022/12/29 02:43:55;;;;;;;2.83;1.50;;;;;;;;;;5018559;28;20120;-69
2022/12/29 02:46:40;;;;;;;;;;;;;;;;;;5035392;28;20488;-69
2022/12/29 02:49:44;;;;;;;4.55;1.75;;;;;;;;;;5033812;28;19916;-69
2022/12/29 02:52:32;;;;;;;5.97;1.50;;;;;;;;;;5034083;28;20041;-70
2022/12/29 02:55:17;;;;;;;3.90;2.15;;;;;;;;;;5033339;28;20048;-69
2022/12/29 02:58:08;;;;;;;5.07;1.40;;;;;;;;;;5048874;28;20029;-70
2022/12/29 03:00:56;;;;;;;6.30;2.10;;;;;;;;;;5050245;28;20029;-69
2022/12/29 03:03:48;;;;;;;3.80;1.60;;;;;;;;;;5047573;28;20025;-69
2022/12/29 03:06:53;;;;;;;6.45;1.88;;;;;;;;;;5038835;28;20025;-70
2022/12/29 03:09:57;;;;;;;3.85;1.65;;;;;;;;;;5032489;28;20492;-69
2022/12/29 03:16:04;;;;;;;2.42;1.50;;;;;;;;;;5033794;28;20272;-85
2022/12/29 03:19:04;;;;;;;2.65;1.48;;;;;;;;;;5020787;28;20029;-91
2022/12/29 03:24:59;;;;;;;3.67;2.03;;;;;;;;;;5035354;28;20032;-92
2022/12/29 03:27:46;;;;;;;7.70;2.17;;;;;;;;;;5036822;28;20191;-92
2022/12/29 03:30:33;;;;;;;2.65;1.50;;;;;;;;;;5031199;28;20097;-91
2022/12/29 03:33:21;;;;;;;3.58;2.05;;;;;;;;;;5039054;28;20112;-90
2022/12/29 03:36:08;;;;;;;3.78;1.70;;;;;;;;;;5030109;28;20384;-77
2022/12/29 03:38:59;;;;;;;5.88;1.90;;;;;;;;;;5039911;28;20040;-70
2022/12/29 03:41:45;;;;;;;3.67;2.13;;;;;;;;;;5030764;28;20482;-70
2022/12/29 03:44:36;;;;;;;2.40;1.50;;;;;;;;;;5033341;28;20160;-69
2022/12/29 03:47:21;;;;;;;5.60;2.17;;;;;;;;;;5034106;28;20036;-70
2022/12/29 03:50:08;;;;;;;2.85;1.35;;;;;;;;;;5047447;28;20545;-70
2022/12/29 03:52:53;;;;;;;2.50;1.25;;;;;;;;;;5034118;28;20435;-68
2022/12/29 03:55:38;;;;;;;4.72;1.52;;;;;;;;;;5033107;28;20502;-74
2022/12/29 03:58:24;;;;;;;4.20;1.48;;;;;;;;;;5034082;28;20129;-74
2022/12/29 04:01:09;;;;;;;4.40;1.40;;;;;;;;;;5026257;28;20443;-73
2022/12/29 04:03:54;;;;;;;14.15;1.75;;;;;;;;;;5033742;28;20045;-76
2022/12/29 04:06:39;;;;;;;2.80;1.30;;;;;;;;;;5033442;28;20565;-74
2022/12/29 04:09:25;;;;;;;1.40;1.30;;;;;;;;;;5047574;28;20488;-76
2022/12/29 04:12:10;;;;;;;3.28;1.33;;;;;;;;;;5034782;28;20036;-71
2022/12/29 04:14:55;;;;;;;5.90;1.20;;;;;;;;;;5031421;28;20049;-77
2022/12/29 04:17:40;;;;;;;3.95;1.42;;;;;;;;;;5016207;28;20423;-77
2022/12/29 04:23:30;;;;;;;3.70;1.25;;;;;;;;;;5031499;28;20032;-75
2022/12/29 04:26:15;;;;;;;6.15;1.20;;;;;;;;;;5032877;28;20492;-75
2022/12/29 04:29:01;;;;;;;5.30;1.35;;;;;;;;;;5033897;28;20436;-77
2022/12/29 04:31:46;;;;;;;2.35;1.30;;;;;;;;;;5033934;28;20037;-69
2022/12/29 04:34:31;;;;;;;3.72;1.25;;;;;;;;;;5047412;28;20566;-79
2022/12/29 04:37:16;;;;;;;3.65;1.25;;;;;;;;;;5033094;28;20029;-78
2022/12/29 04:40:02;;;;;;;2.50;1.52;;;;;;;;;;5046452;28;20052;-76
2022/12/29 04:42:47;;;;;;;4.00;1.40;;;;;;;;;;5038879;28;20067;-77
2022/12/29 04:45:32;;;;;;;3.53;1.17;;;;;;;;;;5034758;28;20033;-76
2022/12/29 04:48:17;;;;;;;4.32;1.23;;;;;;;;;;5033510;28;20032;-67
2022/12/29 04:51:03;;;;;;;2.92;1.48;;;;;;;;;;5032957;28;20522;-70
2022/12/29 04:53:48;;;;;;;4.45;1.27;;;;;;;;;;5032650;28;20236;-69
2022/12/29 04:56:33;;;;;;;4.43;1.48;;;;;;;;;;5032015;28;20032;-68
2022/12/29 04:59:18;;;;;;;2.20;1.40;;;;;;;;;;5032742;28;20110;-68
2022/12/29 05:02:04;;;;;;;3.30;1.48;;;;;;;;;;5046514;28;20032;-67
2022/12/29 05:04:49;;;;;;;2.78;1.45;;;;;;;;;;5032717;28;20036;-68
2022/12/29 05:07:34;;;;;;;4.18;1.50;;;;;;;;;;5035613;28;20049;-70
2022/12/29 05:10:20;;;;;;;2.72;1.40;;;;;;;;;;5032054;28;20124;-69
2022/12/29 05:13:05;;;;;;;2.85;1.50;;;;;;;;;;5028333;28;20227;-69
2022/12/29 05:15:50;;;;;;;2.17;1.42;;;;;;;;;;5044674;28;20044;-68
2022/12/29 05:18:36;;;;;;;3.25;1.95;;;;;;;;;;5036902;28;20032;-70
2022/12/29 05:21:21;;;;;;;2.35;1.13;;;;;;;;;;5036547;28;20083;-69
2022/12/29 05:24:06;;;;;;;2.53;1.50;;;;;;;;;;5036786;28;20423;-69
2022/12/29 05:26:51;;;;;;;5.72;1.60;;;;;;;;;;5035790;28;20380;-89
2022/12/29 05:29:37;;;;;;;3.67;1.55;;;;;;;;;;5036363;28;20029;-75
2022/12/29 05:32:22;;;;;;;4.30;1.90;;;;;;;;;;5036404;28;20403;-73
2022/12/29 05:35:08;;;;;;;1.95;1.42;;;;;;;;;;5036162;28;20129;-74
2022/12/29 05:37:53;;;;;;;5.25;1.80;;;;;;;;;;5021776;28;20086;-74
2022/12/29 05:40:38;;;;;;;3.47;1.80;;;;;;;;;;5035678;28;20039;-74
2022/12/29 05:43:24;;;;;;;5.03;2.63;;;;;;;;;;5036204;28;20090;-76
2022/12/29 05:46:09;;;;;;;1.88;1.30;;;;;;;;;;5038952;28;20324;-67
2022/12/29 05:48:55;;;;;;;2.65;1.50;;;;;;;;;;5033676;28;20112;-70
2022/12/29 05:51:40;;;;;;;3.03;1.60;;;;;;;;;;5032618;28;20025;-69
2022/12/29 05:54:25;;;;;;;2.25;1.33;;;;;;;;;;5032809;28;20396;-71
2022/12/29 05:57:11;;;;;;;5.68;1.48;;;;;;;;;;5032498;28;20075;-69
2022/12/29 05:59:56;;;;;;;4.22;1.63;;;;;;;;;;5026483;28;20033;-71
2022/12/29 06:02:41;;;;;;;1.95;1.58;;;;;;;;;;5034379;28;20439;-67
2022/12/29 06:05:26;;;;;;;3.05;1.40;;;;;;;;;;5035357;28;20055;-74
2022/12/29 06:08:12;;;;;;;2.05;1.50;;;;;;;;;;5035142;28;20450;-75
2022/12/29 06:10:57;;;;;;;2.92;1.20;;;;;;;;;;5021147;28;20043;-75
2022/12/29 06:13:42;;;;;;;3.63;1.67;;;;;;;;;;5035429;28;20116;-75
2022/12/29 06:16:27;;;;;;;4.05;1.95;;;;;;;;;;5034271;28;20413;-74
2022/12/29 06:19:13;;;;;;;4.93;2.50;;;;;;;;;;5041953;28;20063;-73
2022/12/29 06:21:58;;;;;;;2.97;1.60;;;;;;;;;;5033770;28;20036;-74
2022/12/29 06:24:43;;;;;;;4.70;1.75;;;;;;;;;;5038166;28;20036;-92
2022/12/29 06:27:29;;;;;;;7.47;1.58;;;;;;;;;;5054058;28;20028;-91
2022/12/29 06:30:14;;;;;;;3.25;1.90;;;;;;;;;;5040647;28;20056;-91
2022/12/29 06:33:00;;;;;;;2.83;1.63;;;;;;;;;;5040750;28;20033;-91
2022/12/29 06:35:45;;;;;;;3.92;1.20;;;;;;;;;;5038080;28;20037;-91
2022/12/29 06:38:31;;;;;;;1.80;1.30;;;;;;;;;;5040089;28;20175;-71
2022/12/29 06:41:16;;;;;;;2.53;1.38;;;;;;;;;;5049053;28;20047;-78
2022/12/29 06:44:01;;;;;;;3.33;1.92;;;;;;;;;;5035426;28;20431;-79
2022/12/29 06:46:47;;;;;;;3.58;1.77;;;;;;;;;;5035157;28;20036;-77
2022/12/29 06:49:32;;;;;;;2.40;1.30;;;;;;;;;;5035338;28;20041;-77
2022/12/29 06:52:17;;;;;;;2.65;1.27;;;;;;;;;;5034168;28;20103;-79
2022/12/29 06:55:03;;;;;;;8.50;2.10;;;;;;;;;;5034655;28;20039;-81
2022/12/29 06:57:48;;;;;;;9.30;1.83;;;;;;;;;;5032676;28;20036;-78
2022/12/29 07:00:34;;;;;;;1.80;1.30;;;;;;;;;;5033851;28;20044;-78
2022/12/29 07:03:19;;;;;;;4.03;1.50;;;;;;;;;;5034848;28;20040;-75
2022/12/29 07:06:05;;;;;;;5.80;2.10;;;;;;;;;;5034123;28;20475;-77
2022/12/29 07:08:53;;;;;;;2.72;1.55;;;;;;;;;;5034921;28;20433;-79
2022/12/29 07:11:39;;;;;;;4.93;1.45;;;;;;;;;;5034493;28;20029;-77
2022/12/29 07:14:24;;;;;;;3.33;1.70;;;;;;;;;;5022355;28;20081;-78
2022/12/29 07:17:09;;;;;;;7.75;2.88;;;;;;;;;;5019804;28;20036;-69
2022/12/29 07:19:54;;;;;;;4.05;1.85;;;;;;;;;;5034701;28;20120;-73
2022/12/29 07:22:40;;;;;;;3.47;1.60;;;;;;;;;;5038917;28;20219;-71
2022/12/29 07:25:25;;;;;;;2.33;1.67;;;;;;;;;;5036258;28;20501;-72
2022/12/29 07:28:10;;;;;;;5.95;2.65;;;;;;;;;;5034004;28;20036;-70
2022/12/29 07:30:55;;;;;;;2.78;1.60;;;;;;;;;;5034012;28;20396;-72
2022/12/29 07:33:41;;;;;;;3.05;1.60;;;;;;;;;;5034479;28;20040;-70
2022/12/29 07:36:26;;;;;;;4.45;1.77;;;;;;;;;;5033619;28;20518;-69
2022/12/29 07:39:11;;;;;;;2.45;1.55;;;;;;;;;;5032849;28;20068;-70
2022/12/29 07:41:57;;;;;;;4.18;2.30;;;;;;;;;;5032392;28;20051;-70
2022/12/29 07:44:42;;;;;;;4.78;2.42;;;;;;;;;;5032766;28;20044;-68
2022/12/29 07:47:27;;;;;;;7.53;2.20;;;;;;;;;;5032441;28;20067;-70
2022/12/29 07:50:12;;;;;;;6.45;2.00;;;;;;;;;;5032477;28;20032;-70
2022/12/29 07:52:57;;;;;;;5.90;2.10;;;;;;;;;;5034332;28;20046;-74
2022/12/29 07:55:43;;;;;;;4.60;2.10;;;;;;;;;;5042044;28;20052;-77
2022/12/29 07:58:28;;;;;;;4.18;1.98;;;;;;;;;;5033570;28;20554;-76
2022/12/29 08:01:13;;;;;;;15.23;2.20;;;;;;;;;;5024951;28;20070;-75
2022/12/29 08:03:58;;;;;;;4.68;2.17;;;;;;;;;;5033687;28;20025;-75
2022/12/29 08:06:45;;;;;;;2.78;1.50;;;;;;;;;;5033534;28;20106;-75
2022/12/29 08:09:30;;;;;;;4.50;1.95;;;;;;;;;;5033967;28;20412;-75
2022/12/29 08:12:15;;;;;;;6.88;2.13;;;;;;;;;;5019432;28;20098;-69
2022/12/29 08:15:00;;;;;;;3.30;1.58;;;;;;;;;;5033637;28;20083;-74
2022/12/29 08:17:46;;;;;;;5.32;1.70;;;;;;;;;;5033475;28;20029;-74
2022/12/29 08:20:31;;;;;;;8.02;2.40;;;;;;;;;;5033404;28;20388;-74
2022/12/29 08:23:16;;;;;;;7.28;2.58;;;;;;;;;;5033550;28;20029;-75
2022/12/29 08:26:05;;;;;;;8.65;2.50;;;;;;;;;;5021634;28;20095;-76
2022/12/29 08:28:55;;;;;;;3.77;2.10;;;;;;;;;;5037993;28;20040;-74
2022/12/29 08:31:40;;;;;;;3.88;2.00;;;;;;;;;;5019796;28;20033;-66
2022/12/29 08:34:25;;;;;;;6.00;2.05;;;;;;;;;;5033107;28;20543;-67
2022/12/29 08:37:11;;;;;;;6.53;3.05;;;;;;;;;;5033282;28;20029;-65
2022/12/29 08:39:57;;;;;;;6.75;2.47;;;;;;;;;;5033568;28;20107;-69
2022/12/29 08:42:43;;;;;;;4.13;2.25;;;;;;;;;;5027440;28;20040;-67
2022/12/29 08:45:28;;;;;;;4.75;1.83;;;;;;;;;;5021061;28;20040;-66
2022/12/29 08:48:16;;;;;;;4.78;1.75;;;;;;;;;;5035068;28;20484;-74
2022/12/29 08:51:01;;;;;;;4.78;2.17;;;;;;;;;;5036547;28;20082;-69
2022/12/29 08:53:46;;;;;;;8.35;2.70;;;;;;;;;;5036344;28;20078;-68
2022/12/29 08:56:31;;;;;;;4.00;2.00;;;;;;;;;;5036129;28;20571;-69
2022/12/29 08:59:17;;;;;;;10.32;2.00;;;;;;;;;;5033867;28;20029;-69
2022/12/29 09:02:02;;;;;;;3.92;1.52;;;;;;;;;;5037355;28;20036;-68
2022/12/29 09:04:47;;;;;;;9.77;2.00;;;;;;;;;;5037827;28;20061;-69
2022/12/29 09:07:32;;;;;;;5.03;2.15;;;;;;;;;;5037479;28;20107;-67
2022/12/29 09:10:18;;;;;;;5.43;1.65;;;;;;;;;;5037524;28;20567;-78
2022/12/29 09:13:03;;;;;;;5.15;1.80;;;;;;;;;;5027323;28;20029;-77
2022/12/29 09:15:48;;;;;;;4.75;2.72;;;;;;;;;;5036724;28;20036;-79
2022/12/29 09:18:33;;;;;;;3.88;2.20;;;;;;;;;;5023097;28;20044;-78
2022/12/29 09:21:18;;;;;;;1.75;1.40;;;;;;;;;;5051050;28;20447;-78
2022/12/29 09:24:04;;;;;;;3.85;1.83;;;;;;;;;;5036880;28;20128;-75
2022/12/29 09:26:49;;;;;;;4.55;1.85;;;;;;;;;;5036752;28;20036;-73
2022/12/29 09:29:34;;;;;;;5.40;1.70;;;;;;;;;;5023386;28;20047;-75
2022/12/29 09:32:19;;;;;;;2.33;1.60;;;;;;;;;;5043252;28;20492;-75
2022/12/29 09:35:05;;;;;;;4.78;1.75;;;;;;;;;;5036852;28;20037;-76
2022/12/29 09:37:50;;;;;;;3.42;1.73;;;;;;;;;;5035984;28;20021;-74
2022/12/29 09:40:35;;;;;;;3.20;1.92;;;;;;;;;;5036232;28;20480;-75
2022/12/29 09:43:27;;;;;;;8.80;1.70;;;;;;;;;;5037749;28;20032;-88
2022/12/29 09:46:25;;;;;;;3.60;1.70;;;;;;;;;;5036886;28;20021;-74
2022/12/29 09:49:13;;;;;;;2.42;1.75;;;;;;;;;;5031993;28;20036;-74
2022/12/29 09:52:06;;;;;;;7.28;2.38;;;;;;;;;;5035161;28;20062;-74
2022/12/29 09:54:56;;;;;;;3.70;1.58;;;;;;;;;;5034553;28;20400;-74
2022/12/29 09:57:41;;;;;;;2.58;1.63;;;;;;;;;;5024724;28;20219;-74
2022/12/29 10:00:47;;;;;;;4.75;1.88;;;;;;;;;;5019438;28;20547;-70
2022/12/29 10:03:49;;;;;;;1.80;1.17;;;;;;;;;;5044742;28;20036;-71
2022/12/29 10:06:38;;;;;;;3.47;1.85;;;;;;;;;;5036053;28;20033;-75
2022/12/29 10:09:31;;;;;;;3.33;1.27;;;;;;;;;;5033335;28;20040;-75
2022/12/29 10:12:28;;;;;;;1.85;1.30;;;;;;;;;;5035466;28;20048;-75
2022/12/29 10:15:18;;;;;;;3.63;1.40;;;;;;;;;;5043773;28;20499;-76
2022/12/29 10:18:06;;;;;;;1.88;1.17;;;;;;;;;;5035721;28;20029;-74
2022/12/29 10:20:53;;;;;;;3.28;1.40;;;;;;;;;;5035944;28;20033;-90
2022/12/29 10:23:40;;;;;;;2.92;1.33;;;;;;;;;;5035026;28;20437;-76
2022/12/29 10:26:31;;;;;;;2.33;1.50;;;;;;;;;;5035135;28;20035;-74
2022/12/29 10:29:21;;;;;;;3.72;1.40;;;;;;;;;;5035590;28;20056;-74
2022/12/29 10:32:13;;;;;;;4.32;1.67;;;;;;;;;;5025063;28;20068;-75
2022/12/29 10:35:01;;;;;;;3.70;1.58;;;;;;;;;;5041443;28;20029;-75
2022/12/29 10:37:53;;;;;;;3.65;2.15;;;;;;;;;;5035362;28;20033;-89
2022/12/29 10:40:42;;;;;;;2.45;1.40;;;;;;;;;;5025191;28;20064;-67
2022/12/29 10:43:28;;;;;;;1.90;1.40;;;;;;;;;;5034231;28;20054;-68
2022/12/29 10:46:17;;;;;;;5.15;1.60;;;;;;;;;;5034779;28;20367;-69
2022/12/29 10:49:03;;;;;;;4.43;1.92;;;;;;;;;;5034714;28;20021;-71
2022/12/29 10:51:49;;;;;;;2.22;1.60;;;;;;;;;;5034913;28;20123;-69
2022/12/29 10:54:45;;;;;;;2.72;1.42;;;;;;;;;;5034267;28;20036;-68
2022/12/29 10:57:36;;;;;;;3.75;1.58;;;;;;;;;;5035276;28;20079;-76
2022/12/29 11:00:22;;;;;;;3.35;1.50;;;;;;;;;;5032791;28;20070;-78
2022/12/29 11:03:13;;;;;;;3.65;2.10;;;;;;;;;;5034923;28;20566;-79
2022/12/29 11:06:06;;;;;;;1.73;1.13;;;;;;;;;;5025088;28;20192;-76
2022/12/29 11:08:57;;;;;;;4.57;1.30;;;;;;;;;;5038912;28;20025;-79
2022/12/29 11:11:42;;;;;;;2.80;1.50;;;;;;;;;;5033710;28;20565;-79
2022/12/29 11:14:29;;;;;;;6.10;2.05;;;;;;;;;;5034826;28;20037;-77
2022/12/29 11:17:16;;;;;;;3.08;1.70;;;;;;;;;;5035993;28;20480;-67
2022/12/29 11:20:18;;;;;;;3.40;1.42;;;;;;;;;;5034853;28;20032;-67
2022/12/29 11:23:22;;;;;;;4.22;1.52;;;;;;;;;;5034183;28;20029;-67
2022/12/29 11:26:13;;;;;;;1.90;1.45;;;;;;;;;;5034221;28;20033;-69
2022/12/29 11:29:07;;;;;;;4.95;1.60;;;;;;;;;;5034736;28;20053;-67
2022/12/29 11:31:54;;;;;;;4.57;1.70;;;;;;;;;;5020829;28;20036;-67
2022/12/29 11:34:40;;;;;;;2.13;1.23;;;;;;;;;;5033885;28;20052;-72
2022/12/29 11:37:30;;;;;;;4.55;1.50;;;;;;;;;;5019750;28;20039;-75
2022/12/29 11:40:16;;;;;;;2.95;1.50;;;;;;;;;;5041097;28;20052;-75
2022/12/29 11:43:02;;;;;;;3.30;1.73;;;;;;;;;;5031352;28;20123;-75
2022/12/29 11:45:48;;;;;;;3.33;2.20;;;;;;;;;;5031067;28;20037;-75
2022/12/29 11:48:38;;;;;;;2.25;1.27;;;;;;;;;;5030398;28;20041;-73
2022/12/29 11:51:25;;;;;;;3.05;1.58;;;;;;;;;;5031161;28;20489;-76
2022/12/29 11:54:15;;;;;;;3.60;1.42;;;;;;;;;;5034092;28;20413;-74
2022/12/29 11:57:15;;;;;;;3.50;1.58;;;;;;;;;;5033752;28;20033;-73
2022/12/29 12:00:01;;;;;;;3.78;1.58;;;;;;;;;;5033579;28;20107;-73
2022/12/29 12:02:50;;;;;;;5.03;2.83;;;;;;;;;;5020544;28;20123;-75
2022/12/29 12:05:39;;;;;;;3.03;1.30;;;;;;;;;;5034001;28;20056;-76
2022/12/29 12:08:39;;;;;;;3.45;2.25;;;;;;;;;;5019879;28;20041;-78
2022/12/29 12:11:36;;;;;;;4.88;2.33;;;;;;;;;;5040635;28;20025;-66
2022/12/29 12:14:21;;;;;;;3.97;1.70;;;;;;;;;;5055988;28;20067;-94
2022/12/29 12:17:35;;;;;;;3.92;1.48;;;;;;;;;;5051662;28;20028;-93
2022/12/29 12:20:32;;;;;;;3.10;1.17;;;;;;;;;;5050360;28;20060;-93
2022/12/29 12:23:33;;;;;;;2.28;1.08;;;;;;;;;;5034160;28;20587;-94
2022/12/29 12:26:20;;;;;;;4.90;1.50;;;;;;;;;;5044429;28;20573;-93
2022/12/29 12:29:12;;;;;;;1.42;1.27;;;;;;;;;;5036194;28;20491;-70
2022/12/29 12:31:59;;;;;;;3.10;1.08;;;;;;;;;;5021639;28;20032;-89
2022/12/29 12:34:45;;;;;;;4.60;1.30;;;;;;;;;;5032485;28;20029;-90
2022/12/29 12:37:48;;;;;;;3.35;1.42;;;;;;;;;;5033057;28;20032;-89
2022/12/29 12:40:53;;;;;;;1.65;1.45;;;;;;;;;;5033394;28;20416;-90
2022/12/29 12:43:44;;;;;;;7.57;1.45;;;;;;;;;;5039682;28;20640;-90
2022/12/29 12:46:56;;;;;;;2.08;1.30;;;;;;;;;;5034430;28;20029;-73
2022/12/29 12:49:50;;;;;;;3.08;1.70;;;;;;;;;;5015340;28;20591;-68
2022/12/29 12:52:35;;;;;;;2.80;1.48;;;;;;;;;;5022689;28;20759;-68
2022/12/29 12:55:31;;;;;;;4.43;1.73;;;;;;;;;;5045661;28;20480;-71
2022/12/29 12:58:35;;;;;;;5.28;1.50;;;;;;;;;;5032061;28;20429;-68
2022/12/29 13:01:36;;;;;;;2.35;1.73;;;;;;;;;;5038166;28;20468;-66
2022/12/29 13:04:37;;;;;;;8.85;2.80;;;;;;;;;;5032725;28;20044;-78
2022/12/29 13:07:36;;;;;;;2.75;1.60;;;;;;;;;;5019174;28;20037;-73
2022/12/29 13:10:21;;;;;;;2.72;1.50;;;;;;;;;;5031595;28;20373;-70
2022/12/29 13:13:10;;;;;;;3.55;1.67;;;;;;;;;;5031700;28;20033;-70
2022/12/29 13:15:55;;;;;;;3.28;1.40;;;;;;;;;;5041391;28;20491;-70
2022/12/29 13:18:40;;;;;;;2.17;1.30;;;;;;;;;;5033228;28;20040;-70
2022/12/29 13:21:32;;;;;;;2.80;1.90;;;;;;;;;;5033764;28;20059;-70
2022/12/29 13:24:36;;;;;;;4.85;1.52;;;;;;;;;;5034749;28;20033;-68
2022/12/29 13:27:32;;;;;;;3.70;1.85;;;;;;;;;;5032838;28;20102;-69
2022/12/29 13:30:19;;;;;;;2.50;1.30;;;;;;;;;;5025343;28;20041;-70
2022/12/29 13:33:23;;;;;;;2.08;1.15;;;;;;;;;;5032975;28;20036;-70
2022/12/29 13:36:27;;;;;;;3.65;1.70;;;;;;;;;;5034456;28;20045;-71
2022/12/29 13:39:12;;;;;;;3.15;1.60;;;;;;;;;;5034953;28;20562;-69
2022/12/29 13:41:58;;;;;;;3.72;1.60;;;;;;;;;;5031877;28;20562;-72
2022/12/29 13:44:51;;;;;;;2.65;1.83;;;;;;;;;;5023369;28;20028;-70
2022/12/29 13:47:38;;;;;;;2.22;1.33;;;;;;;;;;5030714;28;20399;-69
2022/12/29 13:50:26;;;;;;;6.18;1.83;;;;;;;;;;5022120;28;20094;-72
2022/12/29 13:53:18;;;;;;;4.20;1.27;;;;;;;;;;5036707;28;20025;-70
2022/12/29 13:56:10;;;;;;;2.85;1.30;;;;;;;;;;5036295;28;20332;-69
2022/12/29 13:59:02;;;;;;;4.00;1.63;;;;;;;;;;5022800;28;20360;-70
2022/12/29 14:01:47;;;;;;;3.50;1.88;;;;;;;;;;5036274;28;20032;-77
2022/12/29 14:04:34;;;;;;;2.45;1.52;;;;;;;;;;5036832;28;20353;-72
2022/12/29 14:07:20;;;;;;;6.35;1.88;;;;;;;;;;5036169;28;20376;-71
2022/12/29 14:10:05;;;;;;;2.83;1.80;;;;;;;;;;5036045;28;20024;-74
2022/12/29 14:12:50;;;;;;;3.28;1.90;;;;;;;;;;5034668;28;20037;-72
2022/12/29 14:15:40;;;;;;;2.95;1.70;;;;;;;;;;5035225;28;20365;-73
2022/12/29 14:18:27;;;;;;;2.72;1.45;;;;;;;;;;5039565;28;20096;-75
2022/12/29 14:21:13;;;;;;;2.90;1.63;;;;;;;;;;5039823;28;20033;-69
2022/12/29 14:24:17;;;;;;;5.82;2.42;;;;;;;;;;5020810;28;20040;-70
2022/12/29 14:27:08;;;;;;;3.45;1.70;;;;;;;;;;5034907;28;20044;-69
2022/12/29 14:29:53;;;;;;;5.47;1.65;;;;;;;;;;5021836;28;20025;-69
2022/12/29 14:32:39;;;;;;;8.75;1.50;;;;;;;;;;5035969;28;20422;-72
2022/12/29 14:35:40;;;;;;;4.28;2.00;;;;;;;;;;5035347;28;20029;-70
2022/12/29 14:38:26;;;;;;;2.22;1.30;;;;;;;;;;5034781;28;20029;-69
2022/12/29 14:41:16;;;;;;;2.58;1.48;;;;;;;;;;5035180;28;20029;-71
2022/12/29 14:44:01;;;;;;;;;;;;;;;;;;5011499;28;20380;-70
2022/12/29 14:46:52;;;;;;;3.55;1.80;;;;;;;;;;5034589;28;20408;-71
2022/12/29 14:49:44;;;;;;;3.13;2.00;;;;;;;;;;5035675;28;20033;-72
2022/12/29 14:52:30;;;;;;;5.00;2.85;;;;;;;;;;5030171;28;20078;-71
2022/12/29 14:55:15;;;;;;;5.68;2.60;;;;;;;;;;5034919;28;20037;-78
2022/12/29 14:58:01;;;;;;;4.63;1.70;;;;;;;;;;5034896;28;20396;-91
2022/12/29 15:00:47;;;;;;;2.97;1.85;;;;;;;;;;5041645;28;20139;-91
2022/12/29 15:03:36;;;;;;;2.88;1.80;;;;;;;;;;5041384;28;20365;-92
2022/12/29 15:06:23;;;;;;;4.85;1.52;;;;;;;;;;5052099;28;20039;-92
2022/12/29 15:09:14;;;;;;;2.80;1.58;;;;;;;;;;5027105;28;20028;-92
2022/12/29 15:12:06;;;;;;;3.75;1.80;;;;;;;;;;5035433;28;20388;-92
2022/12/29 15:14:52;;;;;;;2.38;1.70;;;;;;;;;;5035297;28;20408;-66
2022/12/29 15:17:38;;;;;;;3.25;1.65;;;;;;;;;;5034566;28;20250;-67
2022/12/29 15:20:25;;;;;;;3.92;1.58;;;;;;;;;;5034365;28;20029;-67
2022/12/29 15:23:11;;;;;;;4.13;2.15;;;;;;;;;;5039171;28;20071;-67
2022/12/29 15:26:07;;;;;;;2.70;1.50;;;;;;;;;;5033778;28;20029;-66
2022/12/29 15:28:54;;;;;;;8.20;2.58;;;;;;;;;;5034509;28;20037;-69
2022/12/29 15:31:46;;;;;;;4.90;2.13;;;;;;;;;;5034192;28;20029;-76
2022/12/29 15:34:32;;;;;;;3.25;1.85;;;;;;;;;;5020699;28;20067;-70
2022/12/29 15:37:18;;;;;;;7.45;2.17;;;;;;;;;;5034524;28;20025;-79
2022/12/29 15:40:04;;;;;;;2.63;1.70;;;;;;;;;;5034042;28;20029;-78
2022/12/29 15:42:58;;;;;;;3.90;1.98;;;;;;;;;;5034043;28;20025;-76
2022/12/29 15:45:44;;;;;;;4.22;2.22;;;;;;;;;;5034233;28;20044;-80
2022/12/29 15:48:30;;;;;;;5.63;2.40;;;;;;;;;;5034108;28;20443;-79
2022/12/29 15:51:19;;;;;;;6.03;2.67;;;;;;;;;;5034055;28;20044;-79
2022/12/29 15:54:05;;;;;;;;;;;;;;;;;;5033504;28;20122;-77
2022/12/29 15:56:50;;;;;;;4.45;2.30;;;;;;;;;;5037756;28;19971;-77
2022/12/29 15:59:35;;;;;;;4.20;2.00;;;;;;;;;;5034156;28;20408;-75
2022/12/29 16:02:24;;;;;;;3.83;2.20;;;;;;;;;;5047607;28;20033;-75
2022/12/29 16:05:14;;;;;;;3.00;1.60;;;;;;;;;;5033434;28;20338;-76
2022/12/29 16:08:00;;;;;;;3.05;1.55;;;;;;;;;;5033874;28;20060;-75
2022/12/29 16:10:45;;;;;;;5.38;1.90;;;;;;;;;;5033221;28;20039;-86
2022/12/29 16:13:32;;;;;;;2.13;1.30;;;;;;;;;;5033249;28;20519;-72
2022/12/29 16:16:29;;;;;;;2.00;1.23;;;;;;;;;;5033191;28;20052;-72
2022/12/29 16:19:21;;;;;;;2.30;1.30;;;;;;;;;;5033649;28;20064;-73
2022/12/29 16:22:17;;;;;;;2.50;1.33;;;;;;;;;;5033490;28;20036;-72
2022/12/29 16:25:22;;;;;;;2.33;0.98;;;;;;;;;;5034280;28;20032;-72
2022/12/29 16:28:16;;;;;;;2.22;1.20;;;;;;;;;;5042786;28;20024;-91
2022/12/29 16:31:03;;;;;;;3.17;0.77;;;;;;;;;;5033240;28;20491;-69
2022/12/29 16:33:50;;;;;;;2.10;1.25;;;;;;;;;;5032328;28;20045;-70
2022/12/29 16:36:40;;;;;;;0.98;0.63;;;;;;;;;;5031233;28;20375;-69
2022/12/29 16:39:27;;;;;;;1.92;1.17;;;;;;;;;;5046172;28;20036;-69
2022/12/29 16:42:31;;;;;;;3.00;1.60;;;;;;;;;;5045579;28;20039;-70
2022/12/29 16:45:16;;;;;;;4.97;1.58;;;;;;;;;;5031905;28;20033;-79
2022/12/29 16:48:04;;;;;;;2.08;1.50;;;;;;;;;;5032545;28;20029;-74
2022/12/29 16:50:50;;;;;;;2.15;1.50;;;;;;;;;;5022479;28;20032;-66
2022/12/29 16:53:39;;;;;;;2.40;1.10;;;;;;;;;;5033424;28;20025;-66
2022/12/29 16:56:26;;;;;;;1.80;1.00;;;;;;;;;;5032404;28;20044;-68
2022/12/29 16:59:23;;;;;;;4.00;1.10;;;;;;;;;;5040182;28;20056;-67
2022/12/29 17:02:16;;;;;;;2.10;1.08;;;;;;;;;;5032613;28;20024;-66
2022/12/29 17:05:01;;;;;;;4.30;1.63;;;;;;;;;;5032704;28;20468;-67
2022/12/29 17:07:46;;;;;;;3.17;1.52;;;;;;;;;;5032621;28;20029;-67
2022/12/29 17:13:37;;;;;;;6.75;1.60;;;;;;;;;;5045800;28;20033;-67
2022/12/29 17:16:22;;;;;;;4.78;1.17;;;;;;;;;;5036135;28;20476;-68
2022/12/29 17:19:10;;;;;;;3.03;1.85;;;;;;;;;;5036789;28;20036;-69
2022/12/29 17:21:55;;;;;;;2.50;1.20;;;;;;;;;;5036664;28;20043;-68
2022/12/29 17:24:40;;;;;;;1.50;1.08;;;;;;;;;;5036374;28;20035;-71
2022/12/29 17:27:31;;;;;;;2.35;1.13;;;;;;;;;;5035699;28;20447;-68